sensor_id;sensor_type;location;lat;lon;timestamp;P1;durP1;ratioP1;P2;durP2;ratioP2
323;SDS011;149;51.094;17.002;2023-03-31T00:00:17;3.53;;;2.30;;
323;SDS011;149;51.094;17.002;2023-03-31T00:02:44;2.80;;;2.40;;
323;SDS011;149;51.094;17.002;2023-03-31T00:05:11;3.72;;;3.05;;
323;SDS011;149;51.094;17.002;2023-03-31T00:07:43;4.20;;;3.00;;
323;SDS011;149;51.094;17.002;2023-03-31T00:10:11;3.42;;;2.70;;
323;SDS011;149;51.094;17.002;2023-03-31T00:12:43;3.72;;;2.80;;
323;SDS011;149;51.094;17.002;2023-03-31T00:15:11;4.00;;;2.83;;
323;SDS011;149;51.094;17.002;2023-03-31T00:17:38;3.95;;;2.85;;
323;SDS011;149;51.094;17.002;2023-03-31T00:20:06;5.85;;;3.45;;
323;SDS011;149;51.094;17.002;2023-03-31T00:22:38;6.10;;;3.47;;
323;SDS011;149;51.094;17.002;2023-03-31T00:25:10;6.90;;;3.40;;
323;SDS011;149;51.094;17.002;2023-03-31T00:27:41;7.57;;;3.65;;
323;SDS011;149;51.094;17.002;2023-03-31T00:30:12;3.40;;;2.80;;
323;SDS011;149;51.094;17.002;2023-03-31T00:32:40;4.38;;;2.65;;
323;SDS011;149;51.094;17.002;2023-03-31T00:35:07;3.33;;;3.03;;
323;SDS011;149;51.094;17.002;2023-03-31T00:37:34;4.82;;;3.10;;
323;SDS011;149;51.094;17.002;2023-03-31T00:40:02;5.05;;;4.05;;
323;SDS011;149;51.094;17.002;2023-03-31T00:42:41;4.63;;;3.42;;
323;SDS011;149;51.094;17.002;2023-03-31T00:47:39;5.80;;;3.72;;
323;SDS011;149;51.094;17.002;2023-03-31T00:50:13;4.65;;;3.42;;
323;SDS011;149;51.094;17.002;2023-03-31T00:52:44;4.95;;;3.40;;
323;SDS011;149;51.094;17.002;2023-03-31T00:55:13;7.93;;;3.47;;
323;SDS011;149;51.094;17.002;2023-03-31T00:57:44;7.07;;;4.07;;
323;SDS011;149;51.094;17.002;2023-03-31T01:00:13;5.22;;;3.22;;
323;SDS011;149;51.094;17.002;2023-03-31T01:02:41;3.70;;;3.05;;
323;SDS011;149;51.094;17.002;2023-03-31T01:08:10;5.90;;;3.95;;
323;SDS011;149;51.094;17.002;2023-03-31T01:10:39;5.25;;;4.18;;
323;SDS011;149;51.094;17.002;2023-03-31T01:13:11;5.25;;;3.97;;
323;SDS011;149;51.094;17.002;2023-03-31T01:15:40;8.52;;;5.57;;
323;SDS011;149;51.094;17.002;2023-03-31T01:18:08;5.70;;;4.40;;
323;SDS011;149;51.094;17.002;2023-03-31T01:40:51;6.50;;;5.40;;
323;SDS011;149;51.094;17.002;2023-03-31T01:43:43;13.15;;;8.45;;
323;SDS011;149;51.094;17.002;2023-03-31T01:46:16;8.05;;;4.78;;
323;SDS011;149;51.094;17.002;2023-03-31T01:51:32;11.48;;;6.88;;
323;SDS011;149;51.094;17.002;2023-03-31T01:54:41;7.25;;;6.20;;
323;SDS011;149;51.094;17.002;2023-03-31T01:57:22;8.65;;;7.45;;
323;SDS011;149;51.094;17.002;2023-03-31T02:02:37;9.52;;;7.35;;
323;SDS011;149;51.094;17.002;2023-03-31T02:05:19;9.85;;;7.40;;
323;SDS011;149;51.094;17.002;2023-03-31T02:07:58;12.10;;;7.82;;
323;SDS011;149;51.094;17.002;2023-03-31T02:10:40;11.38;;;8.10;;
323;SDS011;149;51.094;17.002;2023-03-31T02:13:09;11.52;;;8.27;;
323;SDS011;149;51.094;17.002;2023-03-31T02:15:40;15.48;;;10.00;;
323;SDS011;149;51.094;17.002;2023-03-31T02:18:12;9.88;;;8.52;;
323;SDS011;149;51.094;17.002;2023-03-31T02:20:44;9.02;;;8.13;;
323;SDS011;149;51.094;17.002;2023-03-31T02:23:15;9.38;;;8.05;;
323;SDS011;149;51.094;17.002;2023-03-31T02:25:52;8.95;;;7.38;;
323;SDS011;149;51.094;17.002;2023-03-31T02:28:25;13.30;;;10.50;;
323;SDS011;149;51.094;17.002;2023-03-31T02:31:03;14.55;;;7.60;;
323;SDS011;149;51.094;17.002;2023-03-31T02:33:34;11.63;;;8.90;;
323;SDS011;149;51.094;17.002;2023-03-31T02:36:01;10.32;;;8.82;;
323;SDS011;149;51.094;17.002;2023-03-31T02:38:34;12.90;;;9.90;;
323;SDS011;149;51.094;17.002;2023-03-31T02:41:05;15.40;;;8.80;;
323;SDS011;149;51.094;17.002;2023-03-31T02:43:35;8.35;;;7.45;;
323;SDS011;149;51.094;17.002;2023-03-31T02:46:02;10.90;;;9.80;;
323;SDS011;149;51.094;17.002;2023-03-31T02:48:31;15.32;;;9.40;;
323;SDS011;149;51.094;17.002;2023-03-31T02:56:13;13.35;;;9.48;;
323;SDS011;149;51.094;17.002;2023-03-31T03:10:26;12.35;;;9.82;;
323;SDS011;149;51.094;17.002;2023-03-31T03:13:23;17.95;;;11.48;;
323;SDS011;149;51.094;17.002;2023-03-31T03:16:32;13.20;;;11.90;;
323;SDS011;149;51.094;17.002;2023-03-31T03:19:08;17.95;;;15.73;;
323;SDS011;149;51.094;17.002;2023-03-31T03:21:35;26.00;;;21.90;;
323;SDS011;149;51.094;17.002;2023-03-31T03:24:02;34.97;;;26.38;;
323;SDS011;149;51.094;17.002;2023-03-31T03:26:29;32.00;;;27.63;;
323;SDS011;149;51.094;17.002;2023-03-31T03:29:00;27.23;;;22.05;;
323;SDS011;149;51.094;17.002;2023-03-31T03:31:27;26.55;;;23.70;;
323;SDS011;149;51.094;17.002;2023-03-31T03:33:55;18.80;;;16.77;;
323;SDS011;149;51.094;17.002;2023-03-31T03:36:22;14.90;;;11.75;;
323;SDS011;149;51.094;17.002;2023-03-31T03:38:50;14.57;;;10.95;;
323;SDS011;149;51.094;17.002;2023-03-31T03:41:17;12.00;;;10.77;;
323;SDS011;149;51.094;17.002;2023-03-31T03:43:44;15.65;;;11.00;;
323;SDS011;149;51.094;17.002;2023-03-31T03:46:11;12.90;;;9.38;;
323;SDS011;149;51.094;17.002;2023-03-31T03:48:38;9.48;;;8.35;;
323;SDS011;149;51.094;17.002;2023-03-31T03:51:05;9.38;;;8.43;;
323;SDS011;149;51.094;17.002;2023-03-31T03:53:32;13.20;;;9.93;;
323;SDS011;149;51.094;17.002;2023-03-31T03:55:59;12.77;;;8.70;;
323;SDS011;149;51.094;17.002;2023-03-31T03:58:26;14.50;;;9.73;;
323;SDS011;149;51.094;17.002;2023-03-31T04:00:53;8.32;;;7.55;;
323;SDS011;149;51.094;17.002;2023-03-31T04:03:22;14.25;;;8.90;;
323;SDS011;149;51.094;17.002;2023-03-31T04:05:49;9.75;;;8.85;;
323;SDS011;149;51.094;17.002;2023-03-31T04:08:19;9.00;;;8.20;;
323;SDS011;149;51.094;17.002;2023-03-31T04:10:46;8.10;;;7.22;;
323;SDS011;149;51.094;17.002;2023-03-31T04:13:17;11.60;;;9.52;;
323;SDS011;149;51.094;17.002;2023-03-31T04:15:45;7.35;;;6.65;;
323;SDS011;149;51.094;17.002;2023-03-31T04:18:14;10.77;;;7.75;;
323;SDS011;149;51.094;17.002;2023-03-31T04:20:49;11.20;;;8.82;;
323;SDS011;149;51.094;17.002;2023-03-31T04:23:35;8.98;;;7.63;;
323;SDS011;149;51.094;17.002;2023-03-31T04:26:13;11.98;;;8.60;;
323;SDS011;149;51.094;17.002;2023-03-31T04:28:41;9.38;;;8.00;;
323;SDS011;149;51.094;17.002;2023-03-31T04:31:13;10.45;;;7.97;;
323;SDS011;149;51.094;17.002;2023-03-31T04:33:53;14.10;;;8.25;;
323;SDS011;149;51.094;17.002;2023-03-31T04:36:20;10.80;;;8.10;;
323;SDS011;149;51.094;17.002;2023-03-31T04:38:48;9.73;;;8.40;;
323;SDS011;149;51.094;17.002;2023-03-31T04:41:20;14.25;;;8.32;;
323;SDS011;149;51.094;17.002;2023-03-31T04:43:48;12.77;;;7.97;;
323;SDS011;149;51.094;17.002;2023-03-31T04:46:15;10.20;;;8.77;;
323;SDS011;149;51.094;17.002;2023-03-31T04:48:42;10.35;;;8.88;;
323;SDS011;149;51.094;17.002;2023-03-31T04:51:09;10.05;;;8.07;;
323;SDS011;149;51.094;17.002;2023-03-31T04:53:36;9.82;;;8.48;;
323;SDS011;149;51.094;17.002;2023-03-31T04:56:03;8.00;;;7.30;;
323;SDS011;149;51.094;17.002;2023-03-31T04:58:31;9.82;;;8.70;;
323;SDS011;149;51.094;17.002;2023-03-31T05:00:58;9.20;;;7.88;;
323;SDS011;149;51.094;17.002;2023-03-31T05:03:25;10.98;;;7.68;;
323;SDS011;149;51.094;17.002;2023-03-31T05:05:53;8.75;;;7.85;;
323;SDS011;149;51.094;17.002;2023-03-31T05:08:20;9.95;;;8.75;;
323;SDS011;149;51.094;17.002;2023-03-31T05:10:47;12.23;;;8.13;;
323;SDS011;149;51.094;17.002;2023-03-31T05:13:14;10.73;;;8.45;;
323;SDS011;149;51.094;17.002;2023-03-31T05:15:41;8.25;;;7.47;;
323;SDS011;149;51.094;17.002;2023-03-31T05:18:10;12.30;;;8.35;;
323;SDS011;149;51.094;17.002;2023-03-31T05:20:36;13.50;;;6.80;;
323;SDS011;149;51.094;17.002;2023-03-31T05:23:04;9.95;;;6.60;;
323;SDS011;149;51.094;17.002;2023-03-31T05:25:30;9.82;;;8.80;;
323;SDS011;149;51.094;17.002;2023-03-31T05:27:59;8.75;;;6.03;;
323;SDS011;149;51.094;17.002;2023-03-31T05:30:26;11.88;;;7.40;;
323;SDS011;149;51.094;17.002;2023-03-31T05:32:54;6.75;;;6.05;;
323;SDS011;149;51.094;17.002;2023-03-31T05:35:21;8.75;;;7.65;;
323;SDS011;149;51.094;17.002;2023-03-31T05:37:50;8.48;;;6.80;;
323;SDS011;149;51.094;17.002;2023-03-31T05:40:17;7.95;;;6.65;;
323;SDS011;149;51.094;17.002;2023-03-31T05:42:43;5.90;;;5.10;;
323;SDS011;149;51.094;17.002;2023-03-31T05:45:10;6.60;;;6.00;;
323;SDS011;149;51.094;17.002;2023-03-31T05:47:38;5.90;;;5.07;;
323;SDS011;149;51.094;17.002;2023-03-31T05:50:05;9.10;;;6.03;;
323;SDS011;149;51.094;17.002;2023-03-31T05:52:33;5.70;;;5.10;;
323;SDS011;149;51.094;17.002;2023-03-31T05:55:00;6.82;;;5.53;;
323;SDS011;149;51.094;17.002;2023-03-31T05:57:28;8.30;;;5.78;;
323;SDS011;149;51.094;17.002;2023-03-31T05:59:56;7.53;;;5.13;;
323;SDS011;149;51.094;17.002;2023-03-31T06:02:24;10.73;;;6.82;;
323;SDS011;149;51.094;17.002;2023-03-31T06:04:52;7.40;;;6.20;;
323;SDS011;149;51.094;17.002;2023-03-31T06:07:18;13.47;;;6.80;;
323;SDS011;149;51.094;17.002;2023-03-31T06:09:47;8.87;;;6.03;;
323;SDS011;149;51.094;17.002;2023-03-31T06:12:14;9.30;;;6.00;;
323;SDS011;149;51.094;17.002;2023-03-31T06:14:41;12.87;;;7.47;;
323;SDS011;149;51.094;17.002;2023-03-31T06:17:08;13.33;;;6.60;;
323;SDS011;149;51.094;17.002;2023-03-31T06:19:35;11.80;;;5.37;;
323;SDS011;149;51.094;17.002;2023-03-31T06:22:02;8.93;;;5.10;;
323;SDS011;149;51.094;17.002;2023-03-31T06:24:29;9.07;;;5.83;;
323;SDS011;149;51.094;17.002;2023-03-31T06:26:56;8.53;;;4.77;;
323;SDS011;149;51.094;17.002;2023-03-31T06:29:23;6.90;;;5.10;;
323;SDS011;149;51.094;17.002;2023-03-31T06:31:51;7.67;;;4.83;;
323;SDS011;149;51.094;17.002;2023-03-31T06:34:20;5.03;;;4.40;;
323;SDS011;149;51.094;17.002;2023-03-31T06:36:47;9.57;;;5.00;;
323;SDS011;149;51.094;17.002;2023-03-31T06:39:19;10.47;;;5.70;;
323;SDS011;149;51.094;17.002;2023-03-31T06:41:46;7.70;;;5.03;;
323;SDS011;149;51.094;17.002;2023-03-31T06:44:13;6.07;;;4.43;;
323;SDS011;149;51.094;17.002;2023-03-31T06:46:41;8.43;;;5.20;;
323;SDS011;149;51.094;17.002;2023-03-31T06:49:08;8.30;;;4.80;;
323;SDS011;149;51.094;17.002;2023-03-31T06:51:36;11.40;;;4.80;;
323;SDS011;149;51.094;17.002;2023-03-31T06:54:03;7.83;;;3.87;;
323;SDS011;149;51.094;17.002;2023-03-31T06:56:31;6.73;;;4.50;;
323;SDS011;149;51.094;17.002;2023-03-31T06:59:00;5.07;;;4.57;;
323;SDS011;149;51.094;17.002;2023-03-31T07:01:27;8.60;;;5.30;;
323;SDS011;149;51.094;17.002;2023-03-31T07:03:53;7.53;;;4.67;;
323;SDS011;149;51.094;17.002;2023-03-31T07:06:20;4.70;;;4.30;;
323;SDS011;149;51.094;17.002;2023-03-31T07:08:47;5.77;;;5.10;;
323;SDS011;149;51.094;17.002;2023-03-31T07:11:16;5.33;;;4.77;;
323;SDS011;149;51.094;17.002;2023-03-31T07:13:46;5.20;;;4.70;;
323;SDS011;149;51.094;17.002;2023-03-31T07:16:13;5.63;;;4.90;;
323;SDS011;149;51.094;17.002;2023-03-31T07:18:40;9.93;;;6.37;;
323;SDS011;149;51.094;17.002;2023-03-31T07:21:07;7.90;;;4.57;;
323;SDS011;149;51.094;17.002;2023-03-31T07:23:36;6.37;;;4.93;;
323;SDS011;149;51.094;17.002;2023-03-31T07:26:03;8.00;;;5.50;;
323;SDS011;149;51.094;17.002;2023-03-31T07:28:30;8.13;;;6.37;;
323;SDS011;149;51.094;17.002;2023-03-31T07:30:57;9.20;;;6.07;;
323;SDS011;149;51.094;17.002;2023-03-31T07:33:24;6.43;;;5.00;;
323;SDS011;149;51.094;17.002;2023-03-31T07:35:51;7.43;;;5.20;;
323;SDS011;149;51.094;17.002;2023-03-31T07:38:36;10.60;;;6.30;;
323;SDS011;149;51.094;17.002;2023-03-31T07:41:03;8.03;;;5.63;;
323;SDS011;149;51.094;17.002;2023-03-31T07:43:35;8.03;;;5.10;;
323;SDS011;149;51.094;17.002;2023-03-31T07:46:01;6.30;;;5.70;;
323;SDS011;149;51.094;17.002;2023-03-31T07:48:32;7.90;;;6.67;;
323;SDS011;149;51.094;17.002;2023-03-31T07:51:00;6.50;;;5.00;;
323;SDS011;149;51.094;17.002;2023-03-31T07:53:27;5.90;;;5.30;;
323;SDS011;149;51.094;17.002;2023-03-31T07:55:54;6.43;;;5.40;;
323;SDS011;149;51.094;17.002;2023-03-31T07:58:21;10.80;;;6.93;;
323;SDS011;149;51.094;17.002;2023-03-31T08:00:48;5.90;;;5.00;;
323;SDS011;149;51.094;17.002;2023-03-31T08:03:15;8.97;;;5.90;;
323;SDS011;149;51.094;17.002;2023-03-31T08:05:42;9.47;;;7.43;;
323;SDS011;149;51.094;17.002;2023-03-31T08:08:09;7.87;;;5.40;;
323;SDS011;149;51.094;17.002;2023-03-31T08:10:36;8.57;;;5.37;;
323;SDS011;149;51.094;17.002;2023-03-31T08:13:03;5.97;;;4.77;;
323;SDS011;149;51.094;17.002;2023-03-31T08:15:30;7.73;;;6.97;;
323;SDS011;149;51.094;17.002;2023-03-31T08:17:58;6.70;;;6.10;;
323;SDS011;149;51.094;17.002;2023-03-31T08:20:25;7.83;;;6.47;;
323;SDS011;149;51.094;17.002;2023-03-31T08:22:52;8.97;;;6.13;;
323;SDS011;149;51.094;17.002;2023-03-31T08:25:19;7.43;;;5.17;;
323;SDS011;149;51.094;17.002;2023-03-31T08:27:46;7.43;;;5.77;;
323;SDS011;149;51.094;17.002;2023-03-31T08:30:17;8.40;;;4.70;;
323;SDS011;149;51.094;17.002;2023-03-31T08:32:45;11.60;;;5.30;;
323;SDS011;149;51.094;17.002;2023-03-31T08:35:12;7.20;;;5.50;;
323;SDS011;149;51.094;17.002;2023-03-31T08:37:39;7.80;;;4.30;;
323;SDS011;149;51.094;17.002;2023-03-31T08:40:07;5.27;;;4.70;;
323;SDS011;149;51.094;17.002;2023-03-31T08:42:45;13.03;;;4.63;;
323;SDS011;149;51.094;17.002;2023-03-31T08:45:23;7.23;;;6.00;;
323;SDS011;149;51.094;17.002;2023-03-31T08:48:01;4.73;;;4.30;;
323;SDS011;149;51.094;17.002;2023-03-31T08:50:38;5.80;;;4.33;;
323;SDS011;149;51.094;17.002;2023-03-31T08:56:16;7.53;;;4.17;;
323;SDS011;149;51.094;17.002;2023-03-31T08:58:47;7.40;;;5.30;;
323;SDS011;149;51.094;17.002;2023-03-31T09:07:04;5.27;;;4.77;;
323;SDS011;149;51.094;17.002;2023-03-31T09:15:33;6.50;;;5.83;;
323;SDS011;149;51.094;17.002;2023-03-31T09:18:06;8.27;;;5.30;;
323;SDS011;149;51.094;17.002;2023-03-31T09:20:52;5.63;;;3.60;;
323;SDS011;149;51.094;17.002;2023-03-31T09:23:34;4.37;;;3.73;;
323;SDS011;149;51.094;17.002;2023-03-31T09:26:19;4.63;;;3.40;;
323;SDS011;149;51.094;17.002;2023-03-31T09:28:48;7.83;;;4.43;;
323;SDS011;149;51.094;17.002;2023-03-31T09:31:17;6.83;;;4.63;;
323;SDS011;149;51.094;17.002;2023-03-31T09:33:46;6.70;;;4.63;;
323;SDS011;149;51.094;17.002;2023-03-31T09:36:17;4.90;;;3.30;;
323;SDS011;149;51.094;17.002;2023-03-31T09:38:49;7.00;;;4.60;;
323;SDS011;149;51.094;17.002;2023-03-31T09:41:16;5.80;;;3.70;;
323;SDS011;149;51.094;17.002;2023-03-31T09:43:48;5.83;;;3.87;;
323;SDS011;149;51.094;17.002;2023-03-31T09:46:35;6.80;;;4.60;;
323;SDS011;149;51.094;17.002;2023-03-31T09:49:05;7.40;;;4.10;;
323;SDS011;149;51.094;17.002;2023-03-31T09:51:40;11.07;;;3.40;;
323;SDS011;149;51.094;17.002;2023-03-31T09:56:51;7.53;;;3.07;;
323;SDS011;149;51.094;17.002;2023-03-31T09:59:22;7.83;;;3.47;;
323;SDS011;149;51.094;17.002;2023-03-31T10:01:58;11.67;;;3.40;;
323;SDS011;149;51.094;17.002;2023-03-31T10:04:31;7.20;;;3.97;;
323;SDS011;149;51.094;17.002;2023-03-31T10:07:00;10.13;;;4.57;;
323;SDS011;149;51.094;17.002;2023-03-31T10:09:30;9.37;;;5.20;;
323;SDS011;149;51.094;17.002;2023-03-31T10:12:06;3.93;;;2.97;;
323;SDS011;149;51.094;17.002;2023-03-31T10:14:41;6.50;;;3.90;;
323;SDS011;149;51.094;17.002;2023-03-31T10:17:14;5.17;;;3.87;;
323;SDS011;149;51.094;17.002;2023-03-31T10:19:55;4.77;;;3.53;;
323;SDS011;149;51.094;17.002;2023-03-31T10:22:31;4.13;;;3.20;;
323;SDS011;149;51.094;17.002;2023-03-31T10:25:09;8.40;;;3.63;;
323;SDS011;149;51.094;17.002;2023-03-31T10:27:44;3.93;;;2.83;;
323;SDS011;149;51.094;17.002;2023-03-31T10:30:17;10.53;;;3.30;;
323;SDS011;149;51.094;17.002;2023-03-31T10:32:48;4.10;;;3.50;;
323;SDS011;149;51.094;17.002;2023-03-31T10:35:30;4.10;;;3.07;;
323;SDS011;149;51.094;17.002;2023-03-31T10:38:05;7.10;;;3.00;;
323;SDS011;149;51.094;17.002;2023-03-31T10:40:37;4.30;;;2.17;;
323;SDS011;149;51.094;17.002;2023-03-31T10:43:16;5.40;;;2.80;;
323;SDS011;149;51.094;17.002;2023-03-31T10:48:29;3.50;;;2.80;;
323;SDS011;149;51.094;17.002;2023-03-31T10:51:05;4.47;;;2.60;;
323;SDS011;149;51.094;17.002;2023-03-31T10:53:52;2.97;;;2.30;;
323;SDS011;149;51.094;17.002;2023-03-31T11:11:05;4.20;;;2.37;;
323;SDS011;149;51.094;17.002;2023-03-31T11:13:46;8.07;;;2.40;;
323;SDS011;149;51.094;17.002;2023-03-31T11:19:27;2.80;;;2.10;;
323;SDS011;149;51.094;17.002;2023-03-31T11:22:06;4.20;;;2.50;;
323;SDS011;149;51.094;17.002;2023-03-31T11:27:46;3.30;;;2.80;;
323;SDS011;149;51.094;17.002;2023-03-31T11:41:37;5.90;;;2.90;;
323;SDS011;149;51.094;17.002;2023-03-31T11:44:20;4.20;;;2.50;;
323;SDS011;149;51.094;17.002;2023-03-31T11:47:00;3.30;;;2.30;;
323;SDS011;149;51.094;17.002;2023-03-31T11:49:33;5.23;;;2.80;;
323;SDS011;149;51.094;17.002;2023-03-31T11:52:19;5.33;;;3.13;;
323;SDS011;149;51.094;17.002;2023-03-31T11:57:46;5.23;;;2.50;;
323;SDS011;149;51.094;17.002;2023-03-31T12:00:15;5.90;;;3.53;;
323;SDS011;149;51.094;17.002;2023-03-31T12:05:42;7.83;;;4.30;;
323;SDS011;149;51.094;17.002;2023-03-31T12:11:11;3.80;;;2.47;;
323;SDS011;149;51.094;17.002;2023-03-31T12:13:52;4.87;;;2.97;;
323;SDS011;149;51.094;17.002;2023-03-31T12:16:34;9.83;;;4.33;;
323;SDS011;149;51.094;17.002;2023-03-31T12:19:16;7.93;;;3.17;;
323;SDS011;149;51.094;17.002;2023-03-31T12:21:54;5.73;;;2.80;;
323;SDS011;149;51.094;17.002;2023-03-31T12:24:26;4.13;;;2.40;;
323;SDS011;149;51.094;17.002;2023-03-31T12:29:33;8.10;;;2.13;;
323;SDS011;149;51.094;17.002;2023-03-31T12:32:12;5.73;;;2.87;;
323;SDS011;149;51.094;17.002;2023-03-31T12:43:58;4.53;;;2.33;;
323;SDS011;149;51.094;17.002;2023-03-31T12:46:38;6.20;;;2.73;;
323;SDS011;149;51.094;17.002;2023-03-31T12:49:29;3.90;;;2.63;;
323;SDS011;149;51.094;17.002;2023-03-31T12:52:10;2.93;;;2.53;;
323;SDS011;149;51.094;17.002;2023-03-31T12:55:05;6.23;;;2.30;;
323;SDS011;149;51.094;17.002;2023-03-31T13:04:07;9.00;;;4.23;;
323;SDS011;149;51.094;17.002;2023-03-31T13:06:50;3.33;;;2.30;;
323;SDS011;149;51.094;17.002;2023-03-31T13:12:12;5.03;;;3.70;;
323;SDS011;149;51.094;17.002;2023-03-31T13:14:47;5.13;;;3.03;;
323;SDS011;149;51.094;17.002;2023-03-31T13:17:32;3.70;;;2.93;;
323;SDS011;149;51.094;17.002;2023-03-31T13:20:16;3.80;;;2.80;;
323;SDS011;149;51.094;17.002;2023-03-31T13:23:14;2.70;;;2.30;;
323;SDS011;149;51.094;17.002;2023-03-31T13:25:51;6.93;;;3.00;;
323;SDS011;149;51.094;17.002;2023-03-31T13:33:34;6.13;;;4.00;;
323;SDS011;149;51.094;17.002;2023-03-31T13:48:16;10.30;;;5.20;;
323;SDS011;149;51.094;17.002;2023-03-31T13:51:08;4.83;;;3.87;;
323;SDS011;149;51.094;17.002;2023-03-31T13:56:58;12.20;;;7.93;;
323;SDS011;149;51.094;17.002;2023-03-31T14:03:27;37.90;;;14.23;;
323;SDS011;149;51.094;17.002;2023-03-31T14:09:03;8.53;;;3.33;;
323;SDS011;149;51.094;17.002;2023-03-31T14:11:53;10.17;;;5.97;;
323;SDS011;149;51.094;17.002;2023-03-31T14:14:23;8.83;;;5.70;;
323;SDS011;149;51.094;17.002;2023-03-31T14:16:52;11.63;;;8.03;;
323;SDS011;149;51.094;17.002;2023-03-31T14:25:13;15.60;;;8.20;;
323;SDS011;149;51.094;17.002;2023-03-31T14:36:39;7.27;;;5.77;;
323;SDS011;149;51.094;17.002;2023-03-31T14:39:24;6.37;;;4.70;;
323;SDS011;149;51.094;17.002;2023-03-31T14:42:13;9.33;;;5.47;;
323;SDS011;149;51.094;17.002;2023-03-31T14:44:42;7.20;;;5.83;;
323;SDS011;149;51.094;17.002;2023-03-31T14:47:12;5.28;;;4.75;;
323;SDS011;149;51.094;17.002;2023-03-31T14:49:47;6.70;;;5.67;;
323;SDS011;149;51.094;17.002;2023-03-31T14:52:47;7.93;;;5.50;;
323;SDS011;149;51.094;17.002;2023-03-31T14:55:17;6.20;;;5.60;;
323;SDS011;149;51.094;17.002;2023-03-31T14:57:53;6.40;;;5.40;;
323;SDS011;149;51.094;17.002;2023-03-31T15:00:24;5.37;;;4.10;;
323;SDS011;149;51.094;17.002;2023-03-31T15:02:59;5.83;;;4.37;;
323;SDS011;149;51.094;17.002;2023-03-31T15:05:28;6.90;;;4.10;;
323;SDS011;149;51.094;17.002;2023-03-31T15:08:04;5.80;;;3.80;;
323;SDS011;149;51.094;17.002;2023-03-31T15:10:42;5.67;;;4.50;;
323;SDS011;149;51.094;17.002;2023-03-31T15:13:29;5.40;;;4.33;;
323;SDS011;149;51.094;17.002;2023-03-31T15:15:59;6.27;;;4.00;;
323;SDS011;149;51.094;17.002;2023-03-31T15:18:44;6.67;;;4.77;;
323;SDS011;149;51.094;17.002;2023-03-31T15:21:18;8.13;;;4.10;;
323;SDS011;149;51.094;17.002;2023-03-31T15:23:50;6.60;;;3.90;;
323;SDS011;149;51.094;17.002;2023-03-31T15:26:18;3.93;;;3.07;;
323;SDS011;149;51.094;17.002;2023-03-31T15:29:05;3.70;;;2.80;;
323;SDS011;149;51.094;17.002;2023-03-31T15:31:35;3.50;;;3.20;;
323;SDS011;149;51.094;17.002;2023-03-31T15:34:24;3.73;;;3.40;;
323;SDS011;149;51.094;17.002;2023-03-31T15:36:54;3.20;;;2.73;;
323;SDS011;149;51.094;17.002;2023-03-31T15:39:23;3.80;;;2.90;;
323;SDS011;149;51.094;17.002;2023-03-31T15:41:52;4.43;;;2.90;;
323;SDS011;149;51.094;17.002;2023-03-31T15:47:20;2.75;;;2.55;;
323;SDS011;149;51.094;17.002;2023-03-31T15:50:02;4.05;;;3.40;;
323;SDS011;149;51.094;17.002;2023-03-31T15:52:44;2.88;;;2.55;;
323;SDS011;149;51.094;17.002;2023-03-31T15:57:55;3.55;;;3.10;;
323;SDS011;149;51.094;17.002;2023-03-31T16:00:44;4.90;;;3.67;;
323;SDS011;149;51.094;17.002;2023-03-31T16:03:32;3.63;;;2.83;;
323;SDS011;149;51.094;17.002;2023-03-31T16:06:08;4.78;;;3.53;;
323;SDS011;149;51.094;17.002;2023-03-31T16:09:01;4.35;;;3.63;;
323;SDS011;149;51.094;17.002;2023-03-31T16:11:39;4.10;;;3.22;;
323;SDS011;149;51.094;17.002;2023-03-31T16:14:23;3.17;;;2.95;;
323;SDS011;149;51.094;17.002;2023-03-31T16:17:00;4.45;;;3.08;;
323;SDS011;149;51.094;17.002;2023-03-31T16:19:46;3.75;;;2.85;;
323;SDS011;149;51.094;17.002;2023-03-31T16:22:21;3.97;;;3.05;;
323;SDS011;149;51.094;17.002;2023-03-31T16:24:52;2.88;;;2.63;;
323;SDS011;149;51.094;17.002;2023-03-31T16:27:21;5.15;;;2.75;;
323;SDS011;149;51.094;17.002;2023-03-31T16:29:48;11.82;;;5.10;;
323;SDS011;149;51.094;17.002;2023-03-31T16:32:16;5.80;;;3.47;;
323;SDS011;149;51.094;17.002;2023-03-31T16:34:55;4.75;;;3.45;;
323;SDS011;149;51.094;17.002;2023-03-31T16:37:23;4.15;;;2.75;;
323;SDS011;149;51.094;17.002;2023-03-31T16:39:51;3.78;;;2.83;;
323;SDS011;149;51.094;17.002;2023-03-31T16:42:21;5.65;;;3.35;;
323;SDS011;149;51.094;17.002;2023-03-31T16:44:48;10.93;;;3.63;;
323;SDS011;149;51.094;17.002;2023-03-31T16:47:35;4.20;;;3.80;;
323;SDS011;149;51.094;17.002;2023-03-31T16:50:03;6.75;;;4.20;;
323;SDS011;149;51.094;17.002;2023-03-31T16:52:34;3.70;;;3.40;;
323;SDS011;149;51.094;17.002;2023-03-31T16:55:02;5.72;;;3.67;;
323;SDS011;149;51.094;17.002;2023-03-31T16:57:29;3.92;;;3.40;;
323;SDS011;149;51.094;17.002;2023-03-31T16:59:57;6.05;;;4.28;;
323;SDS011;149;51.094;17.002;2023-03-31T17:02:24;7.13;;;5.63;;
323;SDS011;149;51.094;17.002;2023-03-31T17:04:52;15.13;;;9.65;;
323;SDS011;149;51.094;17.002;2023-03-31T17:07:24;11.35;;;6.45;;
323;SDS011;149;51.094;17.002;2023-03-31T17:09:52;9.35;;;6.53;;
323;SDS011;149;51.094;17.002;2023-03-31T17:12:23;8.55;;;5.90;;
323;SDS011;149;51.094;17.002;2023-03-31T17:14:50;10.88;;;6.90;;
323;SDS011;149;51.094;17.002;2023-03-31T17:17:17;12.38;;;8.10;;
323;SDS011;149;51.094;17.002;2023-03-31T17:19:44;9.73;;;8.73;;
323;SDS011;149;51.094;17.002;2023-03-31T17:22:11;9.07;;;7.20;;
323;SDS011;149;51.094;17.002;2023-03-31T17:24:39;14.05;;;7.22;;
323;SDS011;149;51.094;17.002;2023-03-31T17:27:05;8.45;;;7.10;;
323;SDS011;149;51.094;17.002;2023-03-31T17:29:34;9.85;;;8.05;;
323;SDS011;149;51.094;17.002;2023-03-31T17:32:01;11.32;;;7.57;;
323;SDS011;149;51.094;17.002;2023-03-31T17:34:27;11.57;;;7.68;;
323;SDS011;149;51.094;17.002;2023-03-31T17:36:54;9.88;;;7.13;;
323;SDS011;149;51.094;17.002;2023-03-31T17:39:23;16.90;;;8.90;;
323;SDS011;149;51.094;17.002;2023-03-31T17:41:53;8.82;;;7.82;;
323;SDS011;149;51.094;17.002;2023-03-31T17:44:20;8.95;;;7.50;;
323;SDS011;149;51.094;17.002;2023-03-31T17:46:47;6.53;;;5.82;;
323;SDS011;149;51.094;17.002;2023-03-31T17:49:13;9.00;;;6.63;;
323;SDS011;149;51.094;17.002;2023-03-31T17:51:41;7.03;;;5.47;;
323;SDS011;149;51.094;17.002;2023-03-31T17:54:09;7.45;;;5.30;;
323;SDS011;149;51.094;17.002;2023-03-31T17:56:38;6.72;;;5.88;;
323;SDS011;149;51.094;17.002;2023-03-31T17:59:04;6.20;;;5.38;;
323;SDS011;149;51.094;17.002;2023-03-31T18:01:31;6.10;;;4.85;;
323;SDS011;149;51.094;17.002;2023-03-31T18:03:58;7.60;;;4.65;;
323;SDS011;149;51.094;17.002;2023-03-31T18:06:25;9.68;;;4.75;;
323;SDS011;149;51.094;17.002;2023-03-31T18:08:55;5.70;;;4.72;;
323;SDS011;149;51.094;17.002;2023-03-31T18:11:22;9.15;;;5.57;;
323;SDS011;149;51.094;17.002;2023-03-31T18:13:49;5.70;;;5.05;;
323;SDS011;149;51.094;17.002;2023-03-31T18:16:17;8.85;;;6.82;;
323;SDS011;149;51.094;17.002;2023-03-31T18:18:47;6.43;;;5.43;;
323;SDS011;149;51.094;17.002;2023-03-31T18:21:14;7.68;;;6.20;;
323;SDS011;149;51.094;17.002;2023-03-31T18:23:41;7.93;;;5.30;;
323;SDS011;149;51.094;17.002;2023-03-31T18:26:08;6.85;;;4.55;;
323;SDS011;149;51.094;17.002;2023-03-31T18:28:37;6.68;;;4.80;;
323;SDS011;149;51.094;17.002;2023-03-31T18:31:06;7.85;;;5.55;;
323;SDS011;149;51.094;17.002;2023-03-31T18:33:34;6.03;;;5.43;;
323;SDS011;149;51.094;17.002;2023-03-31T18:36:02;5.93;;;4.95;;
323;SDS011;149;51.094;17.002;2023-03-31T18:38:29;6.85;;;6.15;;
323;SDS011;149;51.094;17.002;2023-03-31T18:40:56;6.57;;;5.32;;
323;SDS011;149;51.094;17.002;2023-03-31T18:43:23;6.35;;;4.82;;
323;SDS011;149;51.094;17.002;2023-03-31T18:45:51;5.13;;;4.72;;
323;SDS011;149;51.094;17.002;2023-03-31T18:48:21;5.82;;;4.78;;
323;SDS011;149;51.094;17.002;2023-03-31T18:50:49;6.10;;;4.93;;
323;SDS011;149;51.094;17.002;2023-03-31T18:53:21;5.22;;;4.72;;